sensor_id;sensor_type;location;lat;lon;timestamp;temperature;humidity
32400;DHT22;45045;45.440;9.178;2023-01-10T00:00:38;11.30;64.70
32400;DHT22;45045;45.440;9.178;2023-01-10T00:03:06;11.20;65.90
32400;DHT22;45045;45.440;9.178;2023-01-10T00:05:33;11.10;66.80
32400;DHT22;45045;45.440;9.178;2023-01-10T00:07:59;11.00;68.20
32400;DHT22;45045;45.440;9.178;2023-01-10T00:10:26;10.90;69.40
32400;DHT22;45045;45.440;9.178;2023-01-10T00:12:53;10.80;69.80
32400;DHT22;45045;45.440;9.178;2023-01-10T00:15:37;10.90;70.10
32400;DHT22;45045;45.440;9.178;2023-01-10T00:18:03;10.70;70.60
32400;DHT22;45045;45.440;9.178;2023-01-10T00:20:29;10.70;71.90
32400;DHT22;45045;45.440;9.178;2023-01-10T00:22:55;10.60;73.10
32400;DHT22;45045;45.440;9.178;2023-01-10T00:25:20;10.60;73.80
32400;DHT22;45045;45.440;9.178;2023-01-10T00:27:52;10.50;74.80
32400;DHT22;45045;45.440;9.178;2023-01-10T00:30:24;10.40;76.60
32400;DHT22;45045;45.440;9.178;2023-01-10T00:32:49;10.30;78.40
32400;DHT22;45045;45.440;9.178;2023-01-10T00:35:15;10.20;80.10
32400;DHT22;45045;45.440;9.178;2023-01-10T00:37:41;10.00;81.70
32400;DHT22;45045;45.440;9.178;2023-01-10T00:40:07;10.00;82.60
32400;DHT22;45045;45.440;9.178;2023-01-10T00:42:35;9.90;83.80
32400;DHT22;45045;45.440;9.178;2023-01-10T00:45:19;9.80;84.50
32400;DHT22;45045;45.440;9.178;2023-01-10T00:47:47;9.70;86.00
32400;DHT22;45045;45.440;9.178;2023-01-10T00:50:13;9.70;87.30
32400;DHT22;45045;45.440;9.178;2023-01-10T00:52:38;9.70;88.80
32400;DHT22;45045;45.440;9.178;2023-01-10T00:55:04;9.60;90.30
32400;DHT22;45045;45.440;9.178;2023-01-10T00:57:30;9.50;90.50
32400;DHT22;45045;45.440;9.178;2023-01-10T00:59:56;9.50;90.70
32400;DHT22;45045;45.440;9.178;2023-01-10T01:02:22;9.40;91.00
32400;DHT22;45045;45.440;9.178;2023-01-10T01:04:48;9.40;91.30
32400;DHT22;45045;45.440;9.178;2023-01-10T01:07:14;9.30;91.60
32400;DHT22;45045;45.440;9.178;2023-01-10T01:09:40;9.30;91.70
32400;DHT22;45045;45.440;9.178;2023-01-10T01:12:26;9.30;91.90
32400;DHT22;45045;45.440;9.178;2023-01-10T01:14:51;9.20;92.00
32400;DHT22;45045;45.440;9.178;2023-01-10T01:17:17;9.20;92.10
32400;DHT22;45045;45.440;9.178;2023-01-10T01:19:43;9.20;91.80
32400;DHT22;45045;45.440;9.178;2023-01-10T01:22:09;9.20;91.80
32400;DHT22;45045;45.440;9.178;2023-01-10T01:24:35;9.20;92.00
32400;DHT22;45045;45.440;9.178;2023-01-10T01:27:00;9.20;92.00
32400;DHT22;45045;45.440;9.178;2023-01-10T01:29:26;9.10;91.90
32400;DHT22;45045;45.440;9.178;2023-01-10T01:31:52;9.10;91.90
32400;DHT22;45045;45.440;9.178;2023-01-10T01:34:17;9.10;92.20
32400;DHT22;45045;45.440;9.178;2023-01-10T01:36:43;9.20;92.40
32400;DHT22;45045;45.440;9.178;2023-01-10T01:39:09;9.20;91.40
32400;DHT22;45045;45.440;9.178;2023-01-10T01:41:35;9.20;91.00
32400;DHT22;45045;45.440;9.178;2023-01-10T01:44:19;9.30;91.60
32400;DHT22;45045;45.440;9.178;2023-01-10T01:47:12;9.30;90.80
32400;DHT22;45045;45.440;9.178;2023-01-10T01:49:37;9.40;90.60
32400;DHT22;45045;45.440;9.178;2023-01-10T01:52:09;9.40;90.10
32400;DHT22;45045;45.440;9.178;2023-01-10T01:54:35;9.40;89.60
32400;DHT22;45045;45.440;9.178;2023-01-10T01:57:08;9.40;88.20
32400;DHT22;45045;45.440;9.178;2023-01-10T01:59:42;9.50;90.20
32400;DHT22;45045;45.440;9.178;2023-01-10T02:02:35;9.50;89.70
32400;DHT22;45045;45.440;9.178;2023-01-10T02:05:10;9.50;86.70
32400;DHT22;45045;45.440;9.178;2023-01-10T02:07:39;9.50;90.10
32400;DHT22;45045;45.440;9.178;2023-01-10T02:10:12;9.50;89.40
32400;DHT22;45045;45.440;9.178;2023-01-10T02:12:41;9.50;89.20
32400;DHT22;45045;45.440;9.178;2023-01-10T02:15:09;9.40;87.60
32400;DHT22;45045;45.440;9.178;2023-01-10T02:17:34;9.30;86.80
32400;DHT22;45045;45.440;9.178;2023-01-10T02:20:05;9.30;86.00
32400;DHT22;45045;45.440;9.178;2023-01-10T02:22:59;9.30;85.70
32400;DHT22;45045;45.440;9.178;2023-01-10T02:26:05;9.30;86.40
32400;DHT22;45045;45.440;9.178;2023-01-10T02:35:01;9.20;89.80
32400;DHT22;45045;45.440;9.178;2023-01-10T02:37:29;9.20;89.10
32400;DHT22;45045;45.440;9.178;2023-01-10T02:48:20;9.30;87.40
32400;DHT22;45045;45.440;9.178;2023-01-10T02:53:35;9.40;86.40
32400;DHT22;45045;45.440;9.178;2023-01-10T03:04:31;9.50;83.40
32400;DHT22;45045;45.440;9.178;2023-01-10T03:07:19;9.50;83.20
32400;DHT22;45045;45.440;9.178;2023-01-10T03:10:31;9.50;83.70
32400;DHT22;45045;45.440;9.178;2023-01-10T03:12:56;9.60;82.20
32400;DHT22;45045;45.440;9.178;2023-01-10T03:15:25;9.60;82.00
32400;DHT22;45045;45.440;9.178;2023-01-10T03:17:54;9.60;81.60
32400;DHT22;45045;45.440;9.178;2023-01-10T03:20:22;9.60;81.70
32400;DHT22;45045;45.440;9.178;2023-01-10T03:22:50;9.70;81.30
32400;DHT22;45045;45.440;9.178;2023-01-10T03:25:19;9.70;81.40
32400;DHT22;45045;45.440;9.178;2023-01-10T03:30:26;9.80;79.80
32400;DHT22;45045;45.440;9.178;2023-01-10T03:32:53;9.80;79.90
32400;DHT22;45045;45.440;9.178;2023-01-10T03:35:21;9.80;80.40
32400;DHT22;45045;45.440;9.178;2023-01-10T03:37:58;9.80;80.20
32400;DHT22;45045;45.440;9.178;2023-01-10T03:40:37;9.80;80.60
32400;DHT22;45045;45.440;9.178;2023-01-10T03:46:35;9.80;80.00
32400;DHT22;45045;45.440;9.178;2023-01-10T03:49:03;9.80;79.80
32400;DHT22;45045;45.440;9.178;2023-01-10T03:51:30;9.80;80.20
32400;DHT22;45045;45.440;9.178;2023-01-10T03:53:59;9.70;81.40
32400;DHT22;45045;45.440;9.178;2023-01-10T03:56:25;9.80;80.90
32400;DHT22;45045;45.440;9.178;2023-01-10T03:58:51;9.70;82.30
32400;DHT22;45045;45.440;9.178;2023-01-10T04:01:17;9.80;81.50
32400;DHT22;45045;45.440;9.178;2023-01-10T04:03:43;9.70;81.40
32400;DHT22;45045;45.440;9.178;2023-01-10T04:06:09;9.80;83.20
32400;DHT22;45045;45.440;9.178;2023-01-10T04:08:35;9.80;81.50
32400;DHT22;45045;45.440;9.178;2023-01-10T04:11:00;9.70;84.20
32400;DHT22;45045;45.440;9.178;2023-01-10T04:13:26;9.70;83.00
32400;DHT22;45045;45.440;9.178;2023-01-10T04:15:52;9.70;81.30
32400;DHT22;45045;45.440;9.178;2023-01-10T04:18:17;9.70;83.80
32400;DHT22;45045;45.440;9.178;2023-01-10T04:20:44;9.70;84.50
32400;DHT22;45045;45.440;9.178;2023-01-10T04:23:09;9.70;84.90
32400;DHT22;45045;45.440;9.178;2023-01-10T04:25:35;9.70;84.40
32400;DHT22;45045;45.440;9.178;2023-01-10T04:28:01;9.80;84.70
32400;DHT22;45045;45.440;9.178;2023-01-10T04:30:26;9.70;84.60
32400;DHT22;45045;45.440;9.178;2023-01-10T04:32:52;9.70;84.80
32400;DHT22;45045;45.440;9.178;2023-01-10T04:35:19;9.70;85.10
32400;DHT22;45045;45.440;9.178;2023-01-10T04:37:44;9.70;85.50
32400;DHT22;45045;45.440;9.178;2023-01-10T04:40:10;9.70;85.00
32400;DHT22;45045;45.440;9.178;2023-01-10T04:42:37;9.70;86.20
32400;DHT22;45045;45.440;9.178;2023-01-10T04:45:03;9.70;85.10
32400;DHT22;45045;45.440;9.178;2023-01-10T04:47:29;9.70;86.20
32400;DHT22;45045;45.440;9.178;2023-01-10T04:49:54;9.70;84.30
32400;DHT22;45045;45.440;9.178;2023-01-10T04:52:20;9.70;84.80
32400;DHT22;45045;45.440;9.178;2023-01-10T04:54:46;9.70;85.00
32400;DHT22;45045;45.440;9.178;2023-01-10T04:57:11;9.70;83.70
32400;DHT22;45045;45.440;9.178;2023-01-10T04:59:37;9.70;83.50
32400;DHT22;45045;45.440;9.178;2023-01-10T05:02:03;9.70;82.70
32400;DHT22;45045;45.440;9.178;2023-01-10T05:04:28;9.70;83.40
32400;DHT22;45045;45.440;9.178;2023-01-10T05:06:54;9.70;83.70
32400;DHT22;45045;45.440;9.178;2023-01-10T05:09:20;9.70;82.80
32400;DHT22;45045;45.440;9.178;2023-01-10T05:11:45;9.70;82.40
32400;DHT22;45045;45.440;9.178;2023-01-10T05:14:11;9.80;81.80
32400;DHT22;45045;45.440;9.178;2023-01-10T05:16:36;9.80;83.00
32400;DHT22;45045;45.440;9.178;2023-01-10T05:19:02;9.80;83.60
32400;DHT22;45045;45.440;9.178;2023-01-10T05:21:28;9.80;82.30
32400;DHT22;45045;45.440;9.178;2023-01-10T05:23:54;9.80;82.30
32400;DHT22;45045;45.440;9.178;2023-01-10T05:26:21;9.80;82.40
32400;DHT22;45045;45.440;9.178;2023-01-10T05:28:47;9.80;82.10
32400;DHT22;45045;45.440;9.178;2023-01-10T05:31:15;9.80;81.60
32400;DHT22;45045;45.440;9.178;2023-01-10T05:33:46;9.90;80.70
32400;DHT22;45045;45.440;9.178;2023-01-10T05:36:12;9.90;80.60
32400;DHT22;45045;45.440;9.178;2023-01-10T05:38:38;9.90;80.50
32400;DHT22;45045;45.440;9.178;2023-01-10T05:41:04;9.90;79.60
32400;DHT22;45045;45.440;9.178;2023-01-10T05:43:30;10.00;79.30
32400;DHT22;45045;45.440;9.178;2023-01-10T05:45:55;9.90;78.20
32400;DHT22;45045;45.440;9.178;2023-01-10T05:48:21;9.90;78.20
32400;DHT22;45045;45.440;9.178;2023-01-10T05:50:49;10.00;76.90
32400;DHT22;45045;45.440;9.178;2023-01-10T05:53:15;9.90;76.60
32400;DHT22;45045;45.440;9.178;2023-01-10T05:55:41;10.00;77.30
32400;DHT22;45045;45.440;9.178;2023-01-10T05:58:06;10.10;75.20
32400;DHT22;45045;45.440;9.178;2023-01-10T06:00:35;10.10;74.80
32400;DHT22;45045;45.440;9.178;2023-01-10T06:03:02;10.20;74.70
32400;DHT22;45045;45.440;9.178;2023-01-10T06:05:28;10.20;74.60
32400;DHT22;45045;45.440;9.178;2023-01-10T06:07:54;10.20;74.20
32400;DHT22;45045;45.440;9.178;2023-01-10T06:10:19;10.10;74.50
32400;DHT22;45045;45.440;9.178;2023-01-10T06:12:45;10.20;74.80
32400;DHT22;45045;45.440;9.178;2023-01-10T06:15:14;10.20;73.80
32400;DHT22;45045;45.440;9.178;2023-01-10T06:17:40;10.10;74.20
32400;DHT22;45045;45.440;9.178;2023-01-10T06:20:06;10.10;74.30
32400;DHT22;45045;45.440;9.178;2023-01-10T06:22:31;10.10;73.80
32400;DHT22;45045;45.440;9.178;2023-01-10T06:24:58;10.10;73.10
32400;DHT22;45045;45.440;9.178;2023-01-10T06:27:23;10.10;74.20
32400;DHT22;45045;45.440;9.178;2023-01-10T06:29:49;10.10;73.10
32400;DHT22;45045;45.440;9.178;2023-01-10T06:32:15;10.20;72.40
32400;DHT22;45045;45.440;9.178;2023-01-10T06:34:40;10.20;72.80
32400;DHT22;45045;45.440;9.178;2023-01-10T06:37:06;10.20;72.40
32400;DHT22;45045;45.440;9.178;2023-01-10T06:39:32;10.20;72.90
32400;DHT22;45045;45.440;9.178;2023-01-10T06:41:58;10.10;73.90
32400;DHT22;45045;45.440;9.178;2023-01-10T06:44:24;10.20;73.10
32400;DHT22;45045;45.440;9.178;2023-01-10T06:46:49;10.20;72.40
32400;DHT22;45045;45.440;9.178;2023-01-10T06:49:16;10.20;71.40
32400;DHT22;45045;45.440;9.178;2023-01-10T06:51:41;10.20;72.80
32400;DHT22;45045;45.440;9.178;2023-01-10T06:54:07;10.20;71.40
32400;DHT22;45045;45.440;9.178;2023-01-10T06:56:33;10.40;92.40
32400;DHT22;45045;45.440;9.178;2023-01-10T06:58:58;11.20;99.90
32400;DHT22;45045;45.440;9.178;2023-01-10T07:01:24;11.80;94.70
32400;DHT22;45045;45.440;9.178;2023-01-10T07:03:50;12.10;98.00
32400;DHT22;45045;45.440;9.178;2023-01-10T07:06:16;12.50;99.90
32400;DHT22;45045;45.440;9.178;2023-01-10T07:08:44;12.70;99.90
32400;DHT22;45045;45.440;9.178;2023-01-10T07:11:11;12.70;98.00
32400;DHT22;45045;45.440;9.178;2023-01-10T07:13:37;13.10;99.90
32400;DHT22;45045;45.440;9.178;2023-01-10T07:16:08;13.40;99.90
32400;DHT22;45045;45.440;9.178;2023-01-10T07:18:35;13.50;99.90
32400;DHT22;45045;45.440;9.178;2023-01-10T07:21:02;13.40;99.90
32400;DHT22;45045;45.440;9.178;2023-01-10T07:23:28;13.80;99.90
32400;DHT22;45045;45.440;9.178;2023-01-10T07:25:56;13.60;99.50
32400;DHT22;45045;45.440;9.178;2023-01-10T07:28:22;13.60;99.90
32400;DHT22;45045;45.440;9.178;2023-01-10T07:30:48;13.50;99.90
32400;DHT22;45045;45.440;9.178;2023-01-10T07:33:14;13.40;92.20
32400;DHT22;45045;45.440;9.178;2023-01-10T07:35:39;13.20;98.40
32400;DHT22;45045;45.440;9.178;2023-01-10T07:38:05;13.20;99.90
32400;DHT22;45045;45.440;9.178;2023-01-10T07:40:31;13.60;99.90
32400;DHT22;45045;45.440;9.178;2023-01-10T07:42:58;13.60;99.90
32400;DHT22;45045;45.440;9.178;2023-01-10T07:45:24;13.80;99.90
32400;DHT22;45045;45.440;9.178;2023-01-10T07:48:02;13.70;98.90
32400;DHT22;45045;45.440;9.178;2023-01-10T07:50:30;13.90;99.90
32400;DHT22;45045;45.440;9.178;2023-01-10T07:52:57;14.10;99.90
32400;DHT22;45045;45.440;9.178;2023-01-10T07:55:23;14.30;99.90
32400;DHT22;45045;45.440;9.178;2023-01-10T07:57:49;14.50;99.90
32400;DHT22;45045;45.440;9.178;2023-01-10T08:00:16;14.50;99.90
32400;DHT22;45045;45.440;9.178;2023-01-10T08:02:42;14.60;99.90
32400;DHT22;45045;45.440;9.178;2023-01-10T08:05:08;14.70;99.90
32400;DHT22;45045;45.440;9.178;2023-01-10T08:07:34;14.90;99.90
32400;DHT22;45045;45.440;9.178;2023-01-10T08:10:00;15.00;99.90
32400;DHT22;45045;45.440;9.178;2023-01-10T08:12:25;15.10;99.90
32400;DHT22;45045;45.440;9.178;2023-01-10T08:14:52;15.20;95.70
32400;DHT22;45045;45.440;9.178;2023-01-10T08:17:18;15.30;99.90
32400;DHT22;45045;45.440;9.178;2023-01-10T08:19:44;15.50;99.90
32400;DHT22;45045;45.440;9.178;2023-01-10T08:22:10;15.50;99.90
32400;DHT22;45045;45.440;9.178;2023-01-10T08:24:36;15.60;99.90
32400;DHT22;45045;45.440;9.178;2023-01-10T08:27:02;15.70;99.90
32400;DHT22;45045;45.440;9.178;2023-01-10T08:29:28;15.80;96.30
32400;DHT22;45045;45.440;9.178;2023-01-10T08:31:54;16.00;96.20
32400;DHT22;45045;45.440;9.178;2023-01-10T08:34:20;16.00;99.80
32400;DHT22;45045;45.440;9.178;2023-01-10T08:36:50;16.20;96.00
32400;DHT22;45045;45.440;9.178;2023-01-10T08:39:16;16.30;94.60
32400;DHT22;45045;45.440;9.178;2023-01-10T08:41:42;16.50;94.40
32400;DHT22;45045;45.440;9.178;2023-01-10T08:44:07;16.60;96.50
32400;DHT22;45045;45.440;9.178;2023-01-10T08:46:33;16.60;97.90
32400;DHT22;45045;45.440;9.178;2023-01-10T08:48:59;16.70;96.90
32400;DHT22;45045;45.440;9.178;2023-01-10T08:51:25;16.80;96.90
32400;DHT22;45045;45.440;9.178;2023-01-10T08:53:51;16.90;96.40
32400;DHT22;45045;45.440;9.178;2023-01-10T08:56:16;17.00;96.00
32400;DHT22;45045;45.440;9.178;2023-01-10T08:58:42;17.00;96.20
32400;DHT22;45045;45.440;9.178;2023-01-10T09:01:08;17.10;96.00
32400;DHT22;45045;45.440;9.178;2023-01-10T09:03:36;17.40;94.50
32400;DHT22;45045;45.440;9.178;2023-01-10T09:06:02;17.70;81.60
32400;DHT22;45045;45.440;9.178;2023-01-10T09:08:28;17.90;90.90
32400;DHT22;45045;45.440;9.178;2023-01-10T09:10:56;17.90;92.40
32400;DHT22;45045;45.440;9.178;2023-01-10T09:13:22;18.10;90.30
32400;DHT22;45045;45.440;9.178;2023-01-10T09:15:50;18.20;86.70
32400;DHT22;45045;45.440;9.178;2023-01-10T09:18:16;18.60;64.40
32400;DHT22;45045;45.440;9.178;2023-01-10T09:20:42;19.60;57.30
32400;DHT22;45045;45.440;9.178;2023-01-10T09:23:13;20.10;51.70
32400;DHT22;45045;45.440;9.178;2023-01-10T09:25:44;20.50;50.90
32400;DHT22;45045;45.440;9.178;2023-01-10T09:28:10;21.10;50.00
32400;DHT22;45045;45.440;9.178;2023-01-10T09:30:36;21.70;47.50
32400;DHT22;45045;45.440;9.178;2023-01-10T09:33:03;21.80;42.40
32400;DHT22;45045;45.440;9.178;2023-01-10T09:35:29;22.00;44.90
32400;DHT22;45045;45.440;9.178;2023-01-10T09:37:57;22.00;41.20
32400;DHT22;45045;45.440;9.178;2023-01-10T09:51:38;23.10;37.30
32400;DHT22;45045;45.440;9.178;2023-01-10T09:54:28;23.50;35.60
32400;DHT22;45045;45.440;9.178;2023-01-10T09:56:55;23.80;33.00
32400;DHT22;45045;45.440;9.178;2023-01-10T09:59:24;23.70;33.80
32400;DHT22;45045;45.440;9.178;2023-01-10T10:02:15;23.60;38.00
32400;DHT22;45045;45.440;9.178;2023-01-10T10:04:54;24.10;32.80
32400;DHT22;45045;45.440;9.178;2023-01-10T10:07:21;23.90;43.90
32400;DHT22;45045;45.440;9.178;2023-01-10T10:09:46;23.60;42.30
32400;DHT22;45045;45.440;9.178;2023-01-10T10:12:30;23.40;54.50
32400;DHT22;45045;45.440;9.178;2023-01-10T10:26:08;25.10;38.30
32400;DHT22;45045;45.440;9.178;2023-01-10T10:34:51;26.40;31.50
32400;DHT22;45045;45.440;9.178;2023-01-10T10:37:44;26.70;33.20
32400;DHT22;45045;45.440;9.178;2023-01-10T10:42:49;27.40;29.30
32400;DHT22;45045;45.440;9.178;2023-01-10T10:45:39;27.20;29.80
32400;DHT22;45045;45.440;9.178;2023-01-10T10:51:06;27.50;27.40
32400;DHT22;45045;45.440;9.178;2023-01-10T10:53:33;28.10;28.40
32400;DHT22;45045;45.440;9.178;2023-01-10T10:56:02;27.80;32.50
32400;DHT22;45045;45.440;9.178;2023-01-10T10:58:29;27.40;32.50
32400;DHT22;45045;45.440;9.178;2023-01-10T11:00:57;27.80;30.70
32400;DHT22;45045;45.440;9.178;2023-01-10T11:06:23;28.20;31.00
32400;DHT22;45045;45.440;9.178;2023-01-10T11:08:51;28.30;30.90
32400;DHT22;45045;45.440;9.178;2023-01-10T11:14:00;28.90;27.70
32400;DHT22;45045;45.440;9.178;2023-01-10T11:16:40;28.50;34.30
32400;DHT22;45045;45.440;9.178;2023-01-10T11:19:21;28.90;31.30
32400;DHT22;45045;45.440;9.178;2023-01-10T11:21:59;29.20;30.00
32400;DHT22;45045;45.440;9.178;2023-01-10T11:26:52;29.30;30.70
32400;DHT22;45045;45.440;9.178;2023-01-10T11:29:23;28.60;41.60
32400;DHT22;45045;45.440;9.178;2023-01-10T11:31:50;28.00;48.50
32400;DHT22;45045;45.440;9.178;2023-01-10T11:37:33;27.70;50.10
32400;DHT22;45045;45.440;9.178;2023-01-10T11:42:40;28.00;44.20
32400;DHT22;45045;45.440;9.178;2023-01-10T11:45:35;28.00;47.80
32400;DHT22;45045;45.440;9.178;2023-01-10T11:48:15;28.00;44.70
32400;DHT22;45045;45.440;9.178;2023-01-10T11:50:48;28.10;47.60
32400;DHT22;45045;45.440;9.178;2023-01-10T11:53:39;28.10;37.00
32400;DHT22;45045;45.440;9.178;2023-01-10T11:56:08;27.60;53.60
32400;DHT22;45045;45.440;9.178;2023-01-10T11:58:38;28.00;42.70
32400;DHT22;45045;45.440;9.178;2023-01-10T12:01:28;28.00;51.70
32400;DHT22;45045;45.440;9.178;2023-01-10T12:04:00;27.80;56.10
32400;DHT22;45045;45.440;9.178;2023-01-10T12:06:43;27.40;60.00
32400;DHT22;45045;45.440;9.178;2023-01-10T12:12:24;27.60;49.80
32400;DHT22;45045;45.440;9.178;2023-01-10T12:14:52;27.80;54.00
32400;DHT22;45045;45.440;9.178;2023-01-10T12:17:31;27.80;60.40
32400;DHT22;45045;45.440;9.178;2023-01-10T12:20:00;27.70;59.50
32400;DHT22;45045;45.440;9.178;2023-01-10T12:22:42;27.60;59.50
32400;DHT22;45045;45.440;9.178;2023-01-10T12:25:19;27.50;59.20
32400;DHT22;45045;45.440;9.178;2023-01-10T12:27:48;27.40;49.10
32400;DHT22;45045;45.440;9.178;2023-01-10T12:30:43;27.50;31.00
32400;DHT22;45045;45.440;9.178;2023-01-10T12:33:17;27.50;31.40
32400;DHT22;45045;45.440;9.178;2023-01-10T12:36:03;27.60;29.20
32400;DHT22;45045;45.440;9.178;2023-01-10T12:38:47;27.40;27.60
32400;DHT22;45045;45.440;9.178;2023-01-10T12:44:38;27.00;25.40
32400;DHT22;45045;45.440;9.178;2023-01-10T12:47:28;26.90;28.00
32400;DHT22;45045;45.440;9.178;2023-01-10T12:50:20;27.00;29.30
32400;DHT22;45045;45.440;9.178;2023-01-10T12:52:50;27.00;28.90
32400;DHT22;45045;45.440;9.178;2023-01-10T12:55:22;27.20;30.10
32400;DHT22;45045;45.440;9.178;2023-01-10T12:57:52;27.40;26.20
32400;DHT22;45045;45.440;9.178;2023-01-10T13:00:44;27.30;25.80
32400;DHT22;45045;45.440;9.178;2023-01-10T13:03:18;27.40;26.50
32400;DHT22;45045;45.440;9.178;2023-01-10T13:05:46;27.00;30.00
32400;DHT22;45045;45.440;9.178;2023-01-10T13:08:15;27.00;31.30
32400;DHT22;45045;45.440;9.178;2023-01-10T13:10:45;27.00;33.80
32400;DHT22;45045;45.440;9.178;2023-01-10T13:16:25;27.30;30.10
32400;DHT22;45045;45.440;9.178;2023-01-10T13:21:47;27.30;29.10
32400;DHT22;45045;45.440;9.178;2023-01-10T13:24:23;27.20;28.90
32400;DHT22;45045;45.440;9.178;2023-01-10T13:26:57;27.10;27.00
32400;DHT22;45045;45.440;9.178;2023-01-10T13:29:39;26.80;28.20
32400;DHT22;45045;45.440;9.178;2023-01-10T13:35:12;26.60;32.40
32400;DHT22;45045;45.440;9.178;2023-01-10T13:37:42;26.50;30.00
32400;DHT22;45045;45.440;9.178;2023-01-10T13:40:20;26.10;38.60
32400;DHT22;45045;45.440;9.178;2023-01-10T13:51:19;26.60;29.80
32400;DHT22;45045;45.440;9.178;2023-01-10T13:56:45;27.00;27.50
32400;DHT22;45045;45.440;9.178;2023-01-10T14:02:22;26.60;26.90
32400;DHT22;45045;45.440;9.178;2023-01-10T14:05:04;26.10;29.00
32400;DHT22;45045;45.440;9.178;2023-01-10T14:07:53;25.90;33.30
32400;DHT22;45045;45.440;9.178;2023-01-10T14:10:25;25.70;28.20
32400;DHT22;45045;45.440;9.178;2023-01-10T14:13:00;25.40;30.00
32400;DHT22;45045;45.440;9.178;2023-01-10T14:15:38;25.30;29.70
32400;DHT22;45045;45.440;9.178;2023-01-10T14:21:00;25.10;34.40
32400;DHT22;45045;45.440;9.178;2023-01-10T14:26:35;24.80;33.30
32400;DHT22;45045;45.440;9.178;2023-01-10T14:29:10;24.80;28.30
32400;DHT22;45045;45.440;9.178;2023-01-10T14:31:48;24.80;28.90
32400;DHT22;45045;45.440;9.178;2023-01-10T14:37:05;24.40;27.90
32400;DHT22;45045;45.440;9.178;2023-01-10T14:39:31;24.30;28.30
32400;DHT22;45045;45.440;9.178;2023-01-10T14:42:04;24.20;30.20
32400;DHT22;45045;45.440;9.178;2023-01-10T14:44:58;23.90;27.20
32400;DHT22;45045;45.440;9.178;2023-01-10T14:47:28;23.90;30.10
32400;DHT22;45045;45.440;9.178;2023-01-10T14:49:54;23.60;26.80
32400;DHT22;45045;45.440;9.178;2023-01-10T14:52:28;23.60;27.30
32400;DHT22;45045;45.440;9.178;2023-01-10T14:55:15;23.40;25.80
32400;DHT22;45045;45.440;9.178;2023-01-10T14:57:58;23.20;26.90
32400;DHT22;45045;45.440;9.178;2023-01-10T15:00:33;23.10;32.90
32400;DHT22;45045;45.440;9.178;2023-01-10T15:03:04;23.30;35.00
32400;DHT22;45045;45.440;9.178;2023-01-10T15:05:38;23.40;36.30
32400;DHT22;45045;45.440;9.178;2023-01-10T15:08:24;23.40;41.50
32400;DHT22;45045;45.440;9.178;2023-01-10T15:11:03;23.40;45.10
32400;DHT22;45045;45.440;9.178;2023-01-10T15:13:34;23.40;37.70
32400;DHT22;45045;45.440;9.178;2023-01-10T15:16:01;23.50;34.30
32400;DHT22;45045;45.440;9.178;2023-01-10T15:21:01;23.10;37.50
32400;DHT22;45045;45.440;9.178;2023-01-10T15:23:38;23.10;39.60
32400;DHT22;45045;45.440;9.178;2023-01-10T15:26:13;23.10;54.70
32400;DHT22;45045;45.440;9.178;2023-01-10T15:28:43;23.20;54.40
32400;DHT22;45045;45.440;9.178;2023-01-10T15:31:14;23.00;32.20
32400;DHT22;45045;45.440;9.178;2023-01-10T15:33:46;22.40;27.60
32400;DHT22;45045;45.440;9.178;2023-01-10T15:36:23;22.00;27.50
32400;DHT22;45045;45.440;9.178;2023-01-10T15:38:50;22.10;38.80
32400;DHT22;45045;45.440;9.178;2023-01-10T15:41:18;22.20;43.80
32400;DHT22;45045;45.440;9.178;2023-01-10T15:43:45;22.20;31.20
32400;DHT22;45045;45.440;9.178;2023-01-10T15:46:22;22.10;28.50
32400;DHT22;45045;45.440;9.178;2023-01-10T15:51:34;21.80;32.30
32400;DHT22;45045;45.440;9.178;2023-01-10T15:57:14;21.30;27.70
32400;DHT22;45045;45.440;9.178;2023-01-10T15:59:46;21.30;35.20
32400;DHT22;45045;45.440;9.178;2023-01-10T16:02:22;21.30;28.10
32400;DHT22;45045;45.440;9.178;2023-01-10T16:04:54;20.60;28.20
32400;DHT22;45045;45.440;9.178;2023-01-10T16:07:32;20.70;36.30
32400;DHT22;45045;45.440;9.178;2023-01-10T16:10:25;21.00;30.60
32400;DHT22;45045;45.440;9.178;2023-01-10T16:12:52;20.90;29.50
32400;DHT22;45045;45.440;9.178;2023-01-10T16:15:39;20.70;28.00
32400;DHT22;45045;45.440;9.178;2023-01-10T16:18:08;20.50;28.10
32400;DHT22;45045;45.440;9.178;2023-01-10T16:20:36;20.00;28.20
32400;DHT22;45045;45.440;9.178;2023-01-10T16:23:20;19.70;28.30
32400;DHT22;45045;45.440;9.178;2023-01-10T16:25:52;19.70;29.10
32400;DHT22;45045;45.440;9.178;2023-01-10T16:28:19;19.90;31.70
32400;DHT22;45045;45.440;9.178;2023-01-10T16:30:45;19.60;28.20
32400;DHT22;45045;45.440;9.178;2023-01-10T16:33:15;19.30;28.60
32400;DHT22;45045;45.440;9.178;2023-01-10T16:35:46;18.80;28.70
32400;DHT22;45045;45.440;9.178;2023-01-10T16:38:12;18.40;29.40
32400;DHT22;45045;45.440;9.178;2023-01-10T16:40:40;18.10;29.80
32400;DHT22;45045;45.440;9.178;2023-01-10T16:43:06;17.90;30.40
32400;DHT22;45045;45.440;9.178;2023-01-10T16:45:57;17.70;30.80
32400;DHT22;45045;45.440;9.178;2023-01-10T16:48:28;17.70;31.00
32400;DHT22;45045;45.440;9.178;2023-01-10T16:51:03;17.50;30.50
32400;DHT22;45045;45.440;9.178;2023-01-10T16:53:29;17.40;30.70
32400;DHT22;45045;45.440;9.178;2023-01-10T16:55:55;17.30;30.70
32400;DHT22;45045;45.440;9.178;2023-01-10T16:58:21;17.20;31.50
32400;DHT22;45045;45.440;9.178;2023-01-10T17:00:48;17.20;32.00
32400;DHT22;45045;45.440;9.178;2023-01-10T17:03:15;17.10;32.20
32400;DHT22;45045;45.440;9.178;2023-01-10T17:05:42;17.00;33.20
32400;DHT22;45045;45.440;9.178;2023-01-10T17:08:21;16.90;33.80
32400;DHT22;45045;45.440;9.178;2023-01-10T17:10:52;16.80;34.80
32400;DHT22;45045;45.440;9.178;2023-01-10T17:13:23;16.70;35.80
32400;DHT22;45045;45.440;9.178;2023-01-10T17:15:49;16.60;36.30
32400;DHT22;45045;45.440;9.178;2023-01-10T17:18:15;16.60;36.70
32400;DHT22;45045;45.440;9.178;2023-01-10T17:20:41;16.40;35.20
32400;DHT22;45045;45.440;9.178;2023-01-10T17:23:06;16.30;36.90
32400;DHT22;45045;45.440;9.178;2023-01-10T17:25:34;16.30;37.40
32400;DHT22;45045;45.440;9.178;2023-01-10T17:28:00;16.20;37.70
32400;DHT22;45045;45.440;9.178;2023-01-10T17:30:26;16.10;38.60
32400;DHT22;45045;45.440;9.178;2023-01-10T17:32:51;15.90;39.30
32400;DHT22;45045;45.440;9.178;2023-01-10T17:35:17;15.90;39.40
32400;DHT22;45045;45.440;9.178;2023-01-10T17:37:43;15.80;40.40
32400;DHT22;45045;45.440;9.178;2023-01-10T17:40:12;15.70;39.10
32400;DHT22;45045;45.440;9.178;2023-01-10T17:42:38;15.60;39.70
32400;DHT22;45045;45.440;9.178;2023-01-10T17:45:04;15.60;39.30
32400;DHT22;45045;45.440;9.178;2023-01-10T17:47:30;15.50;41.90
32400;DHT22;45045;45.440;9.178;2023-01-10T17:49:55;15.60;43.00
32400;DHT22;45045;45.440;9.178;2023-01-10T17:52:21;15.50;44.30
32400;DHT22;45045;45.440;9.178;2023-01-10T17:54:47;15.50;44.30
32400;DHT22;45045;45.440;9.178;2023-01-10T17:57:13;15.40;42.80
32400;DHT22;45045;45.440;9.178;2023-01-10T17:59:39;15.30;44.40